createdAt,value
2019-01-14T00:03:19.225Z,4.90
2019-01-14T00:08:15.285Z,4.90
2019-01-14T00:13:12.333Z,4.90
2019-01-14T00:18:13.751Z,4.90
2019-01-14T00:23:09.767Z,4.90
2019-01-14T00:28:05.822Z,4.90
2019-01-14T00:33:02.486Z,5.00
2019-01-14T00:37:58.787Z,5.10
2019-01-14T00:42:55.587Z,5.10
2019-01-14T00:47:51.767Z,5.10
2019-01-14T00:52:47.793Z,5.10
2019-01-14T00:57:43.770Z,5.20
2019-01-14T01:02:40.197Z,5.20
2019-01-14T01:07:36.266Z,5.20
2019-01-14T01:12:35.171Z,5.30
2019-01-14T01:17:31.230Z,5.30
2019-01-14T01:22:27.217Z,5.30
2019-01-14T01:27:23.478Z,5.30
2019-01-14T01:32:19.448Z,5.40
2019-01-14T01:37:15.581Z,5.40
2019-01-14T01:42:13.598Z,5.40
2019-01-14T01:47:09.403Z,5.40
2019-01-14T01:52:06.437Z,5.40
2019-01-14T01:57:02.423Z,5.30
2019-01-14T02:01:58.382Z,5.30
2019-01-14T02:06:54.437Z,5.30
2019-01-14T02:11:50.534Z,5.30
2019-01-14T02:16:46.717Z,5.30
2019-01-14T02:21:42.565Z,5.30
2019-01-14T02:26:38.568Z,5.30
2019-01-14T02:31:37.396Z,5.20
2019-01-14T02:36:36.148Z,5.20
2019-01-14T02:41:37.089Z,4.80
2019-01-14T02:46:41.711Z,4.40
2019-01-14T02:51:48.350Z,4.20
2019-01-14T02:57:09.646Z,4.10
2019-01-14T03:02:19.859Z,4.10
2019-01-14T03:07:34.355Z,4.00
2019-01-14T03:12:36.039Z,4.00
2019-01-14T03:17:37.130Z,4.00
2019-01-14T03:22:58.605Z,4.00
2019-01-14T03:28:12.678Z,4.10
2019-01-14T03:33:17.100Z,4.20
2019-01-14T03:38:16.314Z,4.10
2019-01-14T03:43:25.285Z,4.00
2019-01-14T03:48:44.650Z,4.00
2019-01-14T03:53:52.323Z,3.90
2019-01-14T03:58:50.997Z,3.80
2019-01-14T04:03:59.745Z,3.90
2019-01-14T04:09:37.934Z,3.80
2019-01-14T04:14:39.317Z,3.70
2019-01-14T04:20:25.251Z,3.70
2019-01-14T04:25:32.910Z,3.80
2019-01-14T04:30:42.125Z,3.80
2019-01-14T04:36:03.470Z,3.80
2019-01-14T04:41:21.537Z,3.90
2019-01-14T04:46:19.850Z,4.00
2019-01-14T04:51:16.327Z,4.10
2019-01-14T04:56:12.688Z,4.00
2019-01-14T05:01:09.638Z,3.90
2019-01-14T05:06:08.428Z,3.80
2019-01-14T05:11:09.925Z,3.70
2019-01-14T05:16:07.975Z,3.70
2019-01-14T05:21:24.780Z,3.60
2019-01-14T05:26:46.103Z,3.60
2019-01-14T05:31:39.843Z,3.50
2019-01-14T05:36:44.419Z,3.50
2019-01-14T05:41:40.612Z,3.60
2019-01-14T05:46:50.162Z,3.50
2019-01-14T05:51:46.315Z,3.30
2019-01-14T05:56:51.391Z,3.20
2019-01-14T06:01:47.554Z,3.10
2019-01-14T06:06:45.717Z,3.10
2019-01-14T06:11:52.980Z,3.20
2019-01-14T06:16:50.560Z,3.10
2019-01-14T06:21:51.998Z,3.10
2019-01-14T06:26:48.461Z,3.10
2019-01-14T06:31:46.660Z,3.20
2019-01-14T06:36:50.982Z,3.20
2019-01-14T06:41:51.359Z,3.20
2019-01-14T06:46:47.595Z,3.20
2019-01-14T06:51:45.062Z,3.40
2019-01-14T06:56:40.920Z,3.40
2019-01-14T07:01:37.272Z,3.40
2019-01-14T07:06:34.102Z,3.40
2019-01-14T07:11:30.563Z,3.40
2019-01-14T07:16:26.715Z,3.40
2019-01-14T07:21:22.847Z,3.40
2019-01-14T07:26:27.634Z,3.40
2019-01-14T07:31:23.681Z,3.40
2019-01-14T07:36:22.768Z,3.50
2019-01-14T07:41:24.229Z,3.30
2019-01-14T07:46:20.248Z,3.20
2019-01-14T07:51:16.857Z,3.20
2019-01-14T07:56:13.955Z,3.20
2019-01-14T08:01:11.202Z,3.20
2019-01-14T08:06:07.384Z,3.40
2019-01-14T08:11:06.354Z,3.50
2019-01-14T08:16:06.169Z,3.60
2019-01-14T08:21:01.938Z,3.60
2019-01-14T08:25:57.733Z,3.60
2019-01-14T08:30:56.416Z,3.50
2019-01-14T08:35:55.088Z,3.30
2019-01-14T08:40:50.866Z,3.30
2019-01-14T08:45:47.268Z,3.30
2019-01-14T08:50:43.032Z,3.30
2019-01-14T08:55:38.792Z,3.20
2019-01-14T09:00:34.853Z,3.30
2019-01-14T09:05:30.668Z,3.50
2019-01-14T09:10:27.649Z,3.90
2019-01-14T09:15:23.697Z,4.30
2019-01-14T09:20:22.157Z,4.50
2019-01-14T09:25:18.314Z,4.40
2019-01-14T09:30:23.280Z,4.40
2019-01-14T09:35:19.597Z,4.70
2019-01-14T09:40:18.377Z,4.60
2019-01-14T09:45:15.022Z,4.70
2019-01-14T09:50:13.815Z,4.70
2019-01-14T09:55:13.133Z,4.60
2019-01-14T10:00:10.839Z,4.50
2019-01-14T10:05:08.918Z,4.30
2019-01-14T10:10:09.954Z,4.30
2019-01-14T10:15:04.174Z,4.30
2019-01-14T10:20:00.236Z,4.30
2019-01-14T10:24:56.153Z,4.30
2019-01-14T10:29:51.963Z,4.20
2019-01-14T10:34:47.946Z,4.10
2019-01-14T10:39:43.762Z,4.10
2019-01-14T10:44:39.540Z,4.20
2019-01-14T10:49:35.492Z,4.40
2019-01-14T10:54:31.326Z,4.60
2019-01-14T10:59:27.693Z,4.80
2019-01-14T11:04:23.704Z,4.80
2019-01-14T11:09:19.774Z,4.80
2019-01-14T11:14:17.186Z,4.90
2019-01-14T11:19:13.157Z,4.90
2019-01-14T11:24:10.006Z,4.80
2019-01-14T11:29:05.842Z,5.00
2019-01-14T11:34:01.871Z,5.00
2019-01-14T11:39:04.806Z,4.90
2019-01-14T11:43:55.386Z,4.80
2019-01-14T11:48:51.368Z,4.80
2019-01-14T11:53:47.760Z,4.70
2019-01-14T11:58:44.857Z,4.70
2019-01-14T12:03:41.967Z,4.60
2019-01-14T12:08:38.089Z,4.60
2019-01-14T12:13:34.048Z,4.60
2019-01-14T12:18:29.928Z,4.60
2019-01-14T12:23:26.141Z,4.60
2019-01-14T12:28:24.574Z,4.70
2019-01-14T12:33:20.717Z,4.60
2019-01-14T12:38:16.612Z,4.70
2019-01-14T12:43:12.510Z,4.80
2019-01-14T12:48:09.384Z,4.70
2019-01-14T12:53:06.031Z,4.60
2019-01-14T12:58:02.063Z,4.50
2019-01-14T13:03:00.885Z,4.50
2019-01-14T13:07:56.902Z,4.50
2019-01-14T13:12:53.342Z,4.40
2019-01-14T13:17:49.555Z,4.40
2019-01-14T13:22:45.895Z,4.40
2019-01-14T13:27:41.979Z,4.40
2019-01-14T13:32:39.525Z,4.50
2019-01-14T13:37:56.220Z,4.60
2019-01-14T13:42:55.282Z,4.60
2019-01-14T13:47:51.878Z,4.60
2019-01-14T13:52:48.062Z,4.60
2019-01-14T13:57:44.210Z,4.50
2019-01-14T14:03:03.799Z,4.50
2019-01-14T14:08:01.156Z,4.40
2019-01-14T14:13:00.314Z,4.40
2019-01-14T14:18:42.875Z,4.50
2019-01-14T14:23:57.499Z,4.50
2019-01-14T14:28:50.787Z,4.40
2019-01-14T14:33:50.917Z,4.30
2019-01-14T14:38:49.436Z,4.20
2019-01-14T14:43:45.472Z,4.10
2019-01-14T14:48:41.359Z,4.10
2019-01-14T14:53:37.539Z,4.10
2019-01-14T14:58:35.036Z,4.20
2019-01-14T15:03:32.709Z,4.30
2019-01-14T15:08:36.363Z,4.20
2019-01-14T15:13:37.696Z,4.10
2019-01-14T15:18:40.100Z,4.10
2019-01-14T15:23:42.347Z,4.10
2019-01-14T15:28:56.027Z,4.10
2019-01-14T15:33:57.070Z,4.20
2019-01-14T15:38:53.210Z,4.20
2019-01-14T15:43:56.976Z,4.20
2019-01-14T15:49:04.291Z,4.20
2019-01-14T15:54:03.213Z,4.10
2019-01-14T15:59:00.005Z,4.10
2019-01-14T16:04:13.037Z,4.10
2019-01-14T16:09:15.097Z,4.10
2019-01-14T16:14:10.977Z,4.10
2019-01-14T16:19:06.985Z,4.10
2019-01-14T16:24:03.229Z,4.00
2019-01-14T16:29:02.127Z,4.00
2019-01-14T16:33:58.292Z,4.00
2019-01-14T16:38:54.386Z,3.90
2019-01-14T16:44:08.606Z,3.90
2019-01-14T16:49:17.752Z,3.90
2019-01-14T16:54:19.344Z,3.90
2019-01-14T16:59:31.425Z,3.90
2019-01-14T17:04:33.123Z,4.00
2019-01-14T17:09:53.441Z,4.00
2019-01-14T17:15:29.760Z,4.00
2019-01-14T17:20:36.157Z,3.90
2019-01-14T17:25:54.696Z,3.60
2019-01-14T17:30:51.381Z,3.30
2019-01-14T17:35:56.155Z,3.10
2019-01-14T17:40:52.035Z,2.90
2019-01-14T17:45:48.299Z,2.80
2019-01-14T17:50:44.354Z,2.80
2019-01-14T17:55:40.888Z,2.90
2019-01-14T18:00:46.244Z,2.80
2019-01-14T18:05:46.205Z,2.80
2019-01-14T18:10:46.606Z,2.80
2019-01-14T18:22:52.402Z,2.70
2019-01-14T18:27:54.811Z,2.70
2019-01-14T18:32:55.139Z,2.70
2019-01-14T18:39:15.200Z,2.70
2019-01-14T18:44:22.147Z,2.80
2019-01-14T18:49:26.361Z,2.90
2019-01-14T19:59:52.848Z,2.90
2019-01-14T20:04:48.905Z,2.90
2019-01-14T20:13:03.009Z,2.80
2019-01-14T20:14:51.725Z,2.80
2019-01-14T20:19:54.540Z,2.70
2019-01-14T20:24:50.279Z,2.70
2019-01-14T20:29:46.379Z,2.70
2019-01-14T20:34:42.591Z,2.70
2019-01-14T20:39:39.495Z,2.70
2019-01-14T20:44:35.764Z,2.60
2019-01-14T20:49:31.992Z,2.60
2019-01-14T20:54:28.999Z,2.60
2019-01-14T20:59:33.306Z,2.60
2019-01-14T21:04:24.212Z,2.50
2019-01-14T21:09:21.890Z,2.60
2019-01-14T21:14:22.714Z,2.60
2019-01-14T21:19:22.779Z,2.60
2019-01-14T21:24:21.464Z,2.70
2019-01-14T21:29:17.528Z,2.70
2019-01-14T21:34:13.613Z,2.80
2019-01-14T21:39:13.487Z,2.60
2019-01-14T21:44:09.586Z,2.60
2019-01-14T21:49:05.730Z,2.40
2019-01-14T21:54:01.672Z,2.40
2019-01-14T21:58:57.776Z,2.30
2019-01-14T22:04:03.146Z,2.30
2019-01-14T22:08:59.240Z,2.20
2019-01-14T22:13:55.039Z,2.20
2019-01-14T22:18:51.008Z,2.30
2019-01-14T22:23:46.868Z,2.20
2019-01-14T22:28:53.190Z,2.30
2019-01-14T22:34:28.522Z,2.20
2019-01-14T22:50:23.365Z,2.10
2019-01-14T22:55:25.860Z,2.10
2019-01-14T23:01:41.735Z,2.10
2019-01-14T23:06:49.451Z,2.10
2019-01-14T23:11:54.188Z,2.10
2019-01-14T23:17:08.161Z,2.10
2019-01-14T23:22:17.257Z,2.10
2019-01-14T23:27:33.157Z,2.10
2019-01-14T23:32:53.933Z,1.90
2019-01-14T23:37:53.455Z,1.70
2019-01-14T23:42:54.352Z,1.50
2019-01-14T23:48:00.003Z,1.50
2019-01-14T23:53:09.578Z,1.50
2019-01-14T23:58:17.080Z,1.30
